Time;durP1;ratioP1;P1;durP2;ratioP2;P2;SDS_P1;SDS_P2;PMS_P1;PMS_P2;Temp;Humidity;BMP_temperature;BMP_pressure;BME280_temperature;BME280_humidity;BME280_pressure;Samples;Min_cycle;Max_cycle;Signal;HPM_P1;HPM_P2
2023/10/26 00:01:19;;;;;;;;;4.25;4.25;;;;;14.74;85.93;99346.31;6185820;23;45302;-67
2023/10/26 00:03:45;;;;;;;;;5.00;5.00;;;;;14.69;85.86;99335.03;6185474;23;45320;-67
2023/10/26 00:06:10;;;;;;;;;5.75;5.50;;;;;14.70;85.93;99328.72;6158485;23;47271;-67
2023/10/26 00:08:35;;;;;;;;;5.75;4.25;;;;;14.69;85.72;99328.81;6185533;23;45356;-67
2023/10/26 00:11:02;;;;;;;;;3.50;3.50;;;;;14.67;85.65;99328.91;6185252;23;47486;-67
2023/10/26 00:13:27;;;;;;;;;6.75;5.50;;;;;14.69;85.55;99324.28;6185526;23;45239;-67
2023/10/26 00:15:52;;;;;;;;;4.25;3.50;;;;;14.69;85.50;99324.28;6185411;23;45217;-67
2023/10/26 00:18:18;;;;;;;;;5.25;5.25;;;;;14.67;85.68;99328.91;6158377;23;50950;-67
2023/10/26 00:20:45;;;;;;;;;4.00;4.00;;;;;14.65;85.57;99320.13;6184528;23;45257;-67
2023/10/26 00:23:10;;;;;;;;;4.00;4.00;;;;;14.59;85.82;99313.34;6184893;23;45352;-67
2023/10/26 00:25:36;;;;;;;;;4.00;4.00;;;;;14.64;85.93;99319.25;6185420;23;46267;-67
2023/10/26 00:28:01;;;;;;;;;3.25;3.25;;;;;14.58;85.61;99294.63;6185371;23;45331;-67
2023/10/26 00:30:26;;;;;;;;;4.00;4.00;;;;;14.56;86.25;99299.25;6158109;23;45425;-67
2023/10/26 00:32:52;;;;;;;;;3.00;3.00;;;;;14.57;86.00;99296.47;6185487;23;45288;-67
2023/10/26 00:35:17;;;;;;;;;5.00;4.50;;;;;14.64;85.95;99300.44;6184854;23;46413;-67
2023/10/26 00:37:42;;;;;;;;;6.50;4.75;;;;;14.53;85.92;99276.16;6185099;23;45549;-67
2023/10/26 00:40:08;;;;;;;;;5.00;5.00;;;;;14.60;86.08;99290.03;6185322;23;45328;-67
2023/10/26 00:42:33;;;;;;;;;6.50;5.25;;;;;14.64;85.68;99291.53;6185317;23;45269;-67
2023/10/26 00:44:59;;;;;;;;;5.75;5.25;;;;;14.61;85.94;99294.44;6184688;23;45857;-67
2023/10/26 00:47:28;;;;;;;;;5.00;5.00;;;;;14.62;86.12;99285.44;6184774;23;56361;-67
2023/10/26 00:49:54;;;;;;;;;4.25;4.25;;;;;14.53;86.13;99275.31;6184748;23;45280;-67
2023/10/26 00:52:21;;;;;;;;;5.25;5.25;;;;;14.59;85.82;99289.19;6208955;22;45263;-67
2023/10/26 00:54:47;;;;;;;;;4.00;4.00;;;;;14.56;86.20;99281.31;6185918;23;46116;-67
2023/10/26 00:57:16;;;;;;;;;5.00;5.00;;;;;14.61;85.96;99289.91;6186188;23;45492;-67
2023/10/26 00:59:44;;;;;;;;;6.25;6.00;;;;;14.59;86.27;99288.34;6186042;23;45281;-67
2023/10/26 01:02:11;;;;;;;;;4.00;4.00;;;;;14.54;86.38;99280.56;6186293;23;45518;-67
2023/10/26 01:04:36;;;;;;;;;7.00;7.00;;;;;14.62;86.12;99293.50;6186015;23;45400;-67
2023/10/26 01:07:01;;;;;;;;;4.75;4.75;;;;;14.61;86.34;99292.59;6184070;23;45459;-67
2023/10/26 01:09:27;;;;;;;;;7.00;7.00;;;;;14.56;86.09;99284.00;6159634;23;45465;-67
2023/10/26 01:11:54;;;;;;;;;7.25;5.25;;;;;14.52;86.61;99271.78;6186589;23;45493;-67
2023/10/26 01:14:19;;;;;;;;;2.00;2.00;;;;;14.60;86.59;99287.34;6185966;23;46090;-67
2023/10/26 01:16:44;;;;;;;;;6.00;5.00;;;;;14.55;86.84;99270.69;6186351;23;45299;-67
2023/10/26 01:19:10;;;;;;;;;6.75;4.25;;;;;14.61;87.15;99287.22;6186000;23;45394;-67
2023/10/26 01:21:52;;;;;;;;;5.00;5.00;;;;;14.56;87.00;99278.63;6185627;23;45427;-67
2023/10/26 01:24:18;;;;;;;;;6.50;4.00;;;;;14.57;87.33;99274.13;6185998;23;46171;-67
2023/10/26 01:26:44;;;;;;;;;5.00;4.25;;;;;14.58;87.43;99279.41;6186467;23;45296;-67
2023/10/26 01:29:09;;;;;;;;;4.50;4.25;;;;;14.57;87.59;99268.75;6186175;23;45381;-67
2023/10/26 01:31:35;;;;;;;;;6.50;5.50;;;;;14.50;87.67;99262.09;6186433;23;45486;-67
2023/10/26 01:34:00;;;;;;;;;5.00;5.00;;;;;14.56;87.71;99272.41;6186321;23;45299;-67
2023/10/26 01:36:26;;;;;;;;;5.75;5.75;;;;;14.48;87.91;99248.78;6186313;23;45282;-67
2023/10/26 01:38:51;;;;;;;;;6.25;6.25;;;;;14.46;88.07;99253.41;6186001;23;45379;-66
2023/10/26 01:41:17;;;;;;;;;6.25;4.00;;;;;14.53;88.37;99267.25;6185871;23;45242;-67
2023/10/26 01:43:42;;;;;;;;;5.25;4.00;;;;;14.49;88.66;99266.63;6185499;23;45304;-66
2023/10/26 01:46:07;;;;;;;;;4.75;3.00;;;;;14.49;89.03;99258.56;6186131;23;45318;-67
2023/10/26 01:48:33;;;;;;;;;4.50;4.50;;;;;14.37;89.05;99233.47;6185733;23;51928;-66
2023/10/26 01:50:58;;;;;;;;;5.00;5.00;;;;;14.48;89.01;99254.16;6159388;23;45483;-67
2023/10/26 01:53:25;;;;;;;;;4.50;4.50;;;;;14.37;89.07;99229.94;6158663;23;47118;-67
2023/10/26 01:55:51;;;;;;;;;7.00;4.25;;;;;14.50;89.68;99251.34;6186369;23;45492;-67
2023/10/26 01:58:16;;;;;;;;;5.25;5.25;;;;;14.49;89.53;99250.50;6186225;23;45807;-67
2023/10/26 02:00:41;;;;;;;;;4.00;3.25;;;;;14.45;89.85;99238.28;6186422;23;45332;-67
2023/10/26 02:03:07;;;;;;;;;4.75;4.00;;;;;14.43;89.74;99230.34;6185090;23;54545;-67
2023/10/26 02:05:32;;;;;;;;;6.00;6.00;;;;;14.40;89.79;99221.63;6186309;23;45618;-67
2023/10/26 02:07:58;;;;;;;;;5.00;5.00;;;;;14.45;90.03;99225.72;6186317;23;45368;-67
2023/10/26 02:10:29;;;;;;;;;5.00;5.00;;;;;14.45;90.10;99227.56;6185015;23;45656;-67
2023/10/26 02:12:55;;;;;;;;;3.00;3.00;;;;;14.49;90.25;99229.03;6184215;23;47798;-67
2023/10/26 02:15:20;;;;;;;;;5.00;5.00;;;;;14.43;90.04;99208.88;6185694;23;45291;-66
2023/10/26 02:17:46;;;;;;;;;5.00;5.00;;;;;14.45;90.43;99206.94;6186482;23;45174;-67
2023/10/26 02:20:11;;;;;;;;;5.75;4.50;;;;;14.50;90.37;99209.28;6185934;23;45509;-66
2023/10/26 02:22:36;;;;;;;;;5.50;4.00;;;;;14.51;90.46;99202.06;6158192;23;55631;-67
2023/10/26 02:25:02;;;;;;;;;4.00;4.00;;;;;14.53;90.58;99205.50;6185675;23;45293;-67
2023/10/26 02:27:27;;;;;;;;;3.75;3.75;;;;;14.52;90.50;99199.28;6186443;23;45397;-67
2023/10/26 02:29:52;;;;;;;;;3.25;3.25;;;;;14.54;90.75;99200.00;6185774;23;52169;-66
2023/10/26 02:32:18;;;;;;;;;5.00;4.25;;;;;14.40;90.75;99174.19;6185961;23;45321;-67
2023/10/26 02:34:43;;;;;;;;;5.00;4.25;;;;;14.55;90.85;99195.50;6185645;23;47594;-66
2023/10/26 02:37:09;;;;;;;;;4.25;3.50;;;;;14.41;90.99;99170.50;6185748;23;45395;-67
2023/10/26 02:39:34;;;;;;;;;3.75;3.75;;;;;14.52;90.96;99179.63;6185454;23;45277;-67
2023/10/26 02:41:59;;;;;;;;;5.00;3.50;;;;;14.55;90.90;99180.25;6186008;23;45958;-67
2023/10/26 02:44:25;;;;;;;;;4.00;4.00;;;;;14.45;90.93;99163.97;6185921;23;45459;-67
2023/10/26 02:46:50;;;;;;;;;2.00;2.00;;;;;14.55;91.33;99177.59;6186349;23;45265;-67
2023/10/26 02:49:16;;;;;;;;;3.50;3.00;;;;;14.54;91.33;99173.16;6186186;23;45237;-67
2023/10/26 02:51:41;;;;;;;;;4.00;4.00;;;;;14.56;91.33;99165.84;6185532;23;45962;-67
2023/10/26 02:54:06;;;;;;;;;3.00;3.00;;;;;14.54;91.29;99162.44;6185007;23;45226;-67
2023/10/26 02:56:32;;;;;;;;;4.00;4.00;;;;;14.58;91.28;99166.63;6186419;23;45439;-67
2023/10/26 02:58:57;;;;;;;;;5.00;4.00;;;;;14.58;91.53;99165.72;6184686;23;53957;-67
2023/10/26 03:01:22;;;;;;;;;5.00;4.00;;;;;14.57;91.84;99148.78;6185854;23;45253;-67
2023/10/26 03:03:47;;;;;;;;;2.75;2.75;;;;;14.55;92.00;99133.75;6185351;23;45229;-67
2023/10/26 03:06:13;;;;;;;;;2.00;2.00;;;;;14.49;91.85;99107.38;6185994;23;45253;-67
2023/10/26 03:08:38;;;;;;;;;3.00;3.00;;;;;14.58;91.99;99131.72;6185575;23;55084;-67
2023/10/26 03:11:03;;;;;;;;;2.75;2.75;;;;;14.55;92.38;99123.00;6185389;23;59423;-66
2023/10/26 03:13:29;;;;;;;;;5.25;3.75;;;;;14.53;91.93;99103.47;6158462;23;45274;-67
2023/10/26 03:15:54;;;;;;;;;2.00;2.00;;;;;14.57;92.35;99113.88;6185909;23;45290;-67
2023/10/26 03:18:20;;;;;;;;;4.25;3.75;;;;;14.53;92.26;99115.06;6185692;23;45309;-67
2023/10/26 03:20:45;;;;;;;;;4.00;3.00;;;;;14.44;92.76;99092.44;6185083;23;47329;-67
2023/10/26 03:23:11;;;;;;;;;2.50;2.50;;;;;14.55;92.46;99106.88;6185005;23;45225;-66
2023/10/26 03:25:36;;;;;;;;;3.75;3.75;;;;;14.54;92.68;99106.03;6186067;23;45509;-67
2023/10/26 03:28:01;;;;;;;;;3.00;3.00;;;;;14.41;92.91;99091.81;6185973;23;45451;-67
2023/10/26 03:30:27;;;;;;;;;2.75;2.75;;;;;14.50;92.63;99101.88;6185388;23;45935;-66
2023/10/26 03:32:53;;;;;;;;;4.00;4.00;;;;;14.44;93.21;99097.81;6158261;23;45656;-67
2023/10/26 03:35:18;;;;;;;;;3.00;3.00;;;;;14.49;93.08;99097.47;6185615;23;45319;-67
2023/10/26 03:37:45;;;;;;;;;2.25;2.25;;;;;14.52;93.13;99093.72;6185722;23;45431;-67
2023/10/26 03:40:13;;;;;;;;;2.50;2.50;;;;;14.46;93.23;99076.22;6186021;23;45379;-66
2023/10/26 03:42:38;;;;;;;;;2.75;2.75;;;;;14.53;93.59;99082.00;6185372;23;45509;-66
2023/10/26 03:45:04;;;;;;;;;3.00;3.00;;;;;14.55;93.31;99091.66;6185056;23;45264;-67
2023/10/26 03:47:29;;;;;;;;;3.00;3.00;;;;;14.59;93.34;99092.31;6185782;23;45308;-66
2023/10/26 03:49:54;;;;;;;;;2.00;2.00;;;;;14.37;93.88;99063.50;6185840;23;45446;-66
2023/10/26 03:52:20;;;;;;;;;3.50;3.50;;;;;14.62;93.45;99111.72;6185708;23;45240;-66
2023/10/26 03:54:46;;;;;;;;;2.50;2.00;;;;;14.64;93.83;99107.09;6158795;23;45237;-67
2023/10/26 03:57:12;;;;;;;;;1.00;1.00;;;;;14.59;93.66;99095.84;6184816;23;45523;-67
2023/10/26 03:59:37;;;;;;;;;3.25;3.00;;;;;14.65;93.80;99102.59;6185212;23;45426;-67
2023/10/26 04:02:03;;;;;;;;;3.25;2.25;;;;;14.62;93.53;99092.94;6185448;23;47774;-66
2023/10/26 04:04:28;;;;;;;;;2.75;0.50;;;;;14.69;93.87;99101.38;6185630;23;45621;-67
2023/10/26 04:06:53;;;;;;;;;2.50;2.50;;;;;14.58;94.06;99083.38;6185528;23;45386;-67
2023/10/26 04:09:19;;;;;;;;;3.00;2.00;;;;;14.65;93.93;99078.44;6208491;22;48350;-67
2023/10/26 04:11:45;;;;;;;;;2.00;2.00;;;;;14.62;93.89;99078.66;6185525;23;45315;-66
2023/10/26 04:14:10;;;;;;;;;3.50;3.00;;;;;14.68;94.00;99075.47;6185158;23;45329;-66
2023/10/26 04:16:35;;;;;;;;;1.75;1.75;;;;;14.66;94.17;99072.06;6184813;23;45293;-67
2023/10/26 04:19:00;;;;;;;;;2.00;2.00;;;;;14.71;94.10;99085.16;6185134;23;46166;-67
2023/10/26 04:21:26;;;;;;;;;2.00;2.00;;;;;14.71;94.16;99090.53;6185248;23;45406;-67
2023/10/26 04:23:51;;;;;;;;;3.00;3.00;;;;;14.72;94.17;99084.19;6184781;23;45543;-66
2023/10/26 04:26:16;;;;;;;;;2.00;2.00;;;;;14.68;94.29;99078.16;6187009;23;50161;-67
2023/10/26 04:28:42;;;;;;;;;3.75;3.75;;;;;14.71;94.50;99079.78;6188502;23;45288;-67
2023/10/26 04:31:07;;;;;;;;;4.25;4.00;;;;;14.62;94.54;99059.88;6161685;23;45365;-66
2023/10/26 04:33:32;;;;;;;;;3.00;3.00;;;;;14.59;94.76;99046.66;6188565;23;45269;-66
2023/10/26 04:36:02;;;;;;;;;2.25;2.25;;;;;14.69;94.48;99060.25;6188389;23;45241;-66
2023/10/26 04:38:28;;;;;;;;;4.25;4.00;;;;;14.69;94.55;99066.47;6188080;23;46442;-66
2023/10/26 04:40:53;;;;;;;;;2.00;2.00;;;;;14.69;94.76;99062.94;6188891;23;45306;-67
2023/10/26 04:43:18;;;;;;;;;3.75;3.50;;;;;14.48;94.96;99020.59;6188820;23;45325;-66
2023/10/26 04:45:44;;;;;;;;;2.75;2.75;;;;;14.69;95.31;99057.56;6187632;23;57242;-67
2023/10/26 04:48:09;;;;;;;;;4.50;3.50;;;;;14.63;95.55;99037.38;6188035;23;53713;-67
2023/10/26 04:50:34;;;;;;;;;4.00;3.00;;;;;14.70;95.65;99049.38;6188305;23;45421;-67
2023/10/26 04:53:02;;;;;;;;;3.00;3.00;;;;;14.68;95.67;99039.72;6188712;23;45273;-66
2023/10/26 04:55:30;;;;;;;;;2.50;2.50;;;;;14.71;95.93;99034.97;6188213;23;45321;-66
2023/10/26 04:57:56;;;;;;;;;3.00;3.00;;;;;14.74;95.89;99036.56;6161702;23;47669;-66
2023/10/26 05:00:22;;;;;;;;;3.00;3.00;;;;;14.76;95.84;99038.16;6187790;23;45520;-67
2023/10/26 05:02:47;;;;;;;;;4.00;4.00;;;;;14.78;95.98;99046.97;6188388;23;45352;-67
2023/10/26 05:05:13;;;;;;;;;3.75;3.75;;;;;14.77;96.05;99033.66;6187960;23;46546;-67
2023/10/26 05:07:38;;;;;;;;;4.00;4.00;;;;;14.78;96.43;99044.28;6160948;23;47111;-66
2023/10/26 05:10:05;;;;;;;;;4.75;4.75;;;;;14.79;96.51;99029.03;6188197;23;45418;-67
2023/10/26 05:12:30;;;;;;;;;6.00;4.75;;;;;14.80;96.35;99020.84;6187933;23;45365;-67
2023/10/26 05:14:56;;;;;;;;;4.50;4.50;;;;;14.88;96.29;99024.75;6187568;23;45257;-66
2023/10/26 05:17:21;;;;;;;;;4.75;4.75;;;;;14.81;96.54;99005.56;6187887;23;45431;-67
2023/10/26 05:19:47;;;;;;;;;5.00;5.00;;;;;14.87;96.63;99017.66;6187964;23;45258;-67
2023/10/26 05:22:12;;;;;;;;;5.50;5.00;;;;;14.89;96.60;99015.75;6187956;23;45599;-67
2023/10/26 05:24:38;;;;;;;;;5.50;5.50;;;;;14.85;96.50;99006.19;6187372;23;45225;-67
2023/10/26 05:27:04;;;;;;;;;4.50;4.50;;;;;14.86;96.64;99002.53;6187971;23;45261;-67
2023/10/26 05:29:30;;;;;;;;;6.00;5.00;;;;;14.90;96.60;99006.69;6187432;23;45284;-67
2023/10/26 05:31:55;;;;;;;;;4.75;4.00;;;;;14.91;96.95;99008.41;6187693;23;45423;-67
2023/10/26 05:34:21;;;;;;;;;5.00;5.00;;;;;14.92;96.89;99002.91;6187920;23;45440;-67
2023/10/26 05:36:47;;;;;;;;;3.50;3.50;;;;;14.92;97.00;99000.22;6160481;23;47913;-67
2023/10/26 05:39:13;;;;;;;;;8.00;5.50;;;;;14.93;96.83;98995.69;6186371;23;45569;-67
2023/10/26 05:41:38;;;;;;;;;7.00;7.00;;;;;14.94;96.98;99000.97;6186314;23;45366;-67
2023/10/26 05:44:04;;;;;;;;;6.00;6.00;;;;;14.92;96.95;98992.16;6185463;23;45278;-67
2023/10/26 05:46:29;;;;;;;;;5.75;5.75;;;;;14.89;97.00;98973.59;6186314;23;45812;-67
2023/10/26 05:48:54;;;;;;;;;7.00;6.00;;;;;15.00;97.14;99005.88;6186451;23;45309;-67
2023/10/26 05:51:20;;;;;;;;;5.50;5.50;;;;;14.96;97.07;99007.06;6159324;23;45967;-67
2023/10/26 05:53:45;;;;;;;;;6.00;5.00;;;;;15.00;96.90;99019.28;6185748;23;52286;-67
2023/10/26 05:56:11;;;;;;;;;7.75;5.75;;;;;14.97;97.16;99007.94;6185705;23;45864;-67
2023/10/26 05:58:36;;;;;;;;;5.75;4.75;;;;;14.96;97.24;99001.69;6185670;23;45531;-67
2023/10/26 06:01:02;;;;;;;;;8.75;6.00;;;;;14.86;97.01;98981.91;6186225;23;45666;-67
2023/10/26 06:03:28;;;;;;;;;6.00;5.75;;;;;15.05;97.25;99007.31;6185179;23;45292;-67
2023/10/26 06:06:06;;;;;;;;;4.00;4.00;;;;;15.12;97.16;99022.84;6186217;23;45220;-67
2023/10/26 06:08:31;;;;;;;;;6.00;6.00;;;;;15.02;97.47;99000.38;6185047;23;45532;-67
2023/10/26 06:10:57;;;;;;;;;4.25;4.00;;;;;15.16;97.39;99012.72;6185485;23;45348;-71
2023/10/26 06:13:24;;;;;;;;;3.75;3.75;;;;;15.12;97.61;99019.31;6183726;23;45345;-71
2023/10/26 06:15:49;;;;;;;;;3.25;1.50;;;;;15.12;97.97;99032.75;6185611;23;46469;-71
2023/10/26 06:18:14;;;;;;;;;0.75;0.75;;;;;15.11;98.22;99045.31;6184401;23;45320;-70
2023/10/26 06:20:40;;;;;;;;;1.00;1.00;;;;;15.16;98.65;99061.94;6158207;23;45454;-70
2023/10/26 06:23:05;;;;;;;;;1.00;0.50;;;;;15.18;98.66;99046.56;6184732;23;45438;-71
2023/10/26 06:25:34;;;;;;;;;1.75;0.25;;;;;15.19;98.52;99053.63;6156898;23;46862;-69
2023/10/26 06:28:00;;;;;;;;;0.00;0.00;;;;;15.17;98.19;99038.63;6185632;23;45491;-69
2023/10/26 06:30:25;;;;;;;;;0.50;0.00;;;;;15.27;98.11;99057.53;6185861;23;45370;-69
2023/10/26 06:32:51;;;;;;;;;0.00;0.00;;;;;15.27;97.64;99053.03;6186167;23;45518;-68
2023/10/26 06:35:17;;;;;;;;;1.00;1.00;;;;;15.29;97.22;99048.38;6183772;23;45977;-68
2023/10/26 06:37:42;;;;;;;;;0.50;0.50;;;;;15.27;96.66;99055.72;6184558;23;45388;-68
2023/10/26 06:40:08;;;;;;;;;2.00;1.50;;;;;15.27;96.36;99058.41;6186107;23;45295;-69
2023/10/26 06:42:34;;;;;;;;;3.25;0.00;;;;;15.36;96.05;99064.91;6185399;23;45356;-68
2023/10/26 06:44:59;;;;;;;;;1.25;1.25;;;;;15.34;95.79;99053.41;6157480;23;47100;-69
2023/10/26 06:47:25;;;;;;;;;2.50;1.00;;;;;15.32;95.74;99055.38;6184584;23;45319;-68
2023/10/26 06:49:50;;;;;;;;;3.00;1.00;;;;;15.32;95.37;99060.75;6208567;22;45304;-68
2023/10/26 06:52:16;;;;;;;;;4.00;1.00;;;;;15.34;95.64;99080.28;6185962;23;45327;-68
2023/10/26 06:54:41;;;;;;;;;1.25;0.00;;;;;15.32;95.00;99091.16;6184837;23;45635;-69
2023/10/26 06:57:06;;;;;;;;;2.00;2.00;;;;;15.28;94.76;99086.16;6184350;23;45359;-69
2023/10/26 06:59:32;;;;;;;;;2.00;1.00;;;;;15.33;94.62;99095.56;6181827;23;45463;-67
2023/10/26 07:01:57;;;;;;;;;3.00;2.00;;;;;15.35;94.38;99103.50;6176859;23;45729;-67
2023/10/26 07:04:22;;;;;;;;;4.75;1.25;;;;;15.37;93.83;99099.72;6183491;23;45851;-67
2023/10/26 07:06:48;;;;;;;;;2.00;2.00;;;;;15.36;93.85;99098.00;6181879;23;45344;-67
2023/10/26 07:09:13;;;;;;;;;2.25;2.25;;;;;15.36;93.52;99099.84;6184115;23;45697;-67
2023/10/26 07:11:39;;;;;;;;;4.75;2.00;;;;;15.42;93.55;99114.63;6184978;23;45356;-67
2023/10/26 07:14:04;;;;;;;;;3.25;1.00;;;;;15.42;93.28;99115.50;6184245;23;46008;-67
2023/10/26 07:16:30;;;;;;;;;2.00;1.00;;;;;15.39;93.12;99121.13;6184910;23;45250;-67
2023/10/26 07:18:55;;;;;;;;;4.00;2.25;;;;;15.43;93.06;99132.47;6185051;23;45526;-67
2023/10/26 07:21:20;;;;;;;;;4.50;2.00;;;;;15.43;92.78;99136.03;6184326;23;45358;-67
2023/10/26 07:23:46;;;;;;;;;7.00;2.25;;;;;15.41;92.64;99137.13;6184235;23;45399;-67
2023/10/26 07:26:17;;;;;;;;;2.75;2.00;;;;;15.41;92.98;99151.41;6157284;23;45270;-67
2023/10/26 07:28:48;;;;;;;;;2.00;2.00;;;;;15.33;92.91;99129.66;6184479;23;45305;-66
2023/10/26 07:31:19;;;;;;;;;3.00;1.25;;;;;15.42;92.52;99157.66;6183072;23;45499;-66
2023/10/26 07:33:45;;;;;;;;;4.25;1.75;;;;;15.40;92.50;99171.22;6184597;23;45656;-67
2023/10/26 07:36:10;;;;;;;;;3.25;2.00;;;;;15.40;92.48;99165.81;6182382;23;45401;-67
2023/10/26 07:38:35;;;;;;;;;4.00;1.00;;;;;15.41;92.55;99169.41;6184499;23;45537;-68
2023/10/26 07:41:03;;;;;;;;;1.75;1.75;;;;;15.38;92.29;99160.59;6184949;23;45277;-67
2023/10/26 07:43:29;;;;;;;;;2.50;2.00;;;;;15.36;91.96;99159.84;6184019;23;46084;-67
2023/10/26 07:45:54;;;;;;;;;5.00;2.75;;;;;15.29;91.87;99169.34;6183599;23;45368;-67
2023/10/26 07:48:20;;;;;;;;;2.50;2.00;;;;;15.36;91.99;99189.41;6185509;23;45500;-68
2023/10/26 07:50:45;;;;;;;;;4.00;1.00;;;;;15.32;92.37;99184.41;6184174;23;45317;-67
2023/10/26 07:53:11;;;;;;;;;4.00;2.75;;;;;15.30;91.92;99184.53;6184219;23;45348;-67
2023/10/26 07:55:36;;;;;;;;;4.50;2.00;;;;;15.26;92.08;99179.50;6184167;23;45336;-67
2023/10/26 07:58:03;;;;;;;;;5.50;2.00;;;;;15.31;92.23;99190.75;6183965;23;46238;-67
2023/10/26 08:00:28;;;;;;;;;2.00;1.00;;;;;15.29;92.68;99192.72;6183624;23;45257;-67
2023/10/26 08:02:53;;;;;;;;;1.25;1.25;;;;;15.30;92.74;99206.03;6157542;23;48052;-67
2023/10/26 08:05:18;;;;;;;;;4.75;3.00;;;;;15.26;92.22;99206.38;6184738;23;45198;-67
2023/10/26 08:07:45;;;;;;;;;1.50;1.50;;;;;15.27;92.52;99208.06;6184618;23;45208;-67
2023/10/26 08:10:11;;;;;;;;;7.00;2.00;;;;;15.24;92.41;99189.53;6183433;23;45443;-67
2023/10/26 08:12:36;;;;;;;;;6.00;3.00;;;;;15.23;92.21;99207.44;6184208;23;46778;-67
2023/10/26 08:15:02;;;;;;;;;4.00;1.25;;;;;15.23;92.29;99207.44;6184666;23;45600;-67
2023/10/26 08:17:28;;;;;;;;;4.75;1.25;;;;;15.27;92.19;99217.00;6184696;23;45751;-67
2023/10/26 08:19:54;;;;;;;;;3.00;1.75;;;;;15.28;91.82;99226.78;6184143;23;45474;-67
2023/10/26 08:22:21;;;;;;;;;2.75;2.00;;;;;15.26;91.96;99219.81;6182359;23;46526;-66
2023/10/26 08:24:48;;;;;;;;;8.25;2.00;;;;;15.34;91.99;99231.69;6179782;23;45315;-66
2023/10/26 08:27:13;;;;;;;;;2.50;1.75;;;;;15.36;92.33;99235.13;6182995;23;45669;-67
2023/10/26 08:29:39;;;;;;;;;5.00;1.50;;;;;15.37;92.27;99228.78;6184739;23;45523;-67
2023/10/26 08:32:04;;;;;;;;;4.00;2.00;;;;;15.34;92.23;99231.69;6184654;23;50769;-67
2023/10/26 08:34:29;;;;;;;;;2.25;2.00;;;;;15.35;92.20;99233.41;6184627;23;45283;-66
2023/10/26 08:36:55;;;;;;;;;4.50;2.00;;;;;15.35;92.04;99222.66;6184164;23;57267;-67
2023/10/26 08:39:20;;;;;;;;;4.00;1.75;;;;;15.25;91.99;99213.59;6182701;23;45699;-67
2023/10/26 08:41:50;;;;;;;;;3.00;2.00;;;;;15.40;91.30;99240.25;6183383;23;60025;-66
2023/10/26 08:44:17;;;;;;;;;2.50;2.00;;;;;15.34;91.84;99220.94;6183514;23;45536;-67
2023/10/26 08:46:44;;;;;;;;;3.75;2.00;;;;;15.40;91.72;99226.81;6207044;22;45407;-67
2023/10/26 08:49:11;;;;;;;;;3.00;1.00;;;;;15.34;91.52;99218.25;6184399;23;45387;-67
2023/10/26 08:51:37;;;;;;;;;4.25;1.25;;;;;15.40;90.82;99235.72;6184242;23;45326;-67
2023/10/26 08:54:02;;;;;;;;;5.75;3.00;;;;;15.44;90.82;99245.28;6183712;23;45351;-67
2023/10/26 08:56:27;;;;;;;;;3.00;1.25;;;;;15.41;91.18;99250.06;6184618;23;45317;-67
2023/10/26 08:58:56;;;;;;;;;2.75;2.75;;;;;15.38;91.64;99243.06;6155568;23;45292;-67
2023/10/26 09:01:21;;;;;;;;;3.50;3.00;;;;;15.39;91.16;99247.47;6183615;23;45347;-67
2023/10/26 09:03:47;;;;;;;;;7.75;3.75;;;;;15.38;91.24;99249.31;6184057;23;45312;-67
2023/10/26 09:06:12;;;;;;;;;5.00;2.50;;;;;15.38;91.25;99252.00;6183589;23;45157;-67
2023/10/26 09:08:37;;;;;;;;;4.25;4.00;;;;;15.33;91.04;99243.41;6207060;22;45590;-67
2023/10/26 09:11:25;;;;;;;;;4.50;3.75;;;;;15.37;91.14;99238.69;6183364;23;45312;-67
2023/10/26 09:13:52;;;;;;;;;2.00;2.00;;;;;15.36;91.22;99251.25;6158021;23;45279;-67
2023/10/26 09:16:18;;;;;;;;;4.00;2.50;;;;;15.32;91.29;99251.63;6186369;23;45336;-67
2023/10/26 09:18:53;;;;;;;;;4.25;3.00;;;;;15.40;91.51;99262.63;6184645;23;45458;-67
2023/10/26 09:21:18;;;;;;;;;4.50;2.50;;;;;15.32;91.62;99252.47;6183981;23;45934;-67
2023/10/26 09:23:45;;;;;;;;;3.50;2.75;;;;;15.28;91.82;99245.59;6183519;23;51915;-66
2023/10/26 09:26:10;;;;;;;;;1.75;1.75;;;;;15.38;91.84;99264.56;6184506;23;45410;-67
2023/10/26 09:28:55;;;;;;;;;3.00;1.50;;;;;15.46;91.22;99278.28;6184509;23;45317;-67
2023/10/26 09:31:24;;;;;;;;;9.75;4.00;;;;;15.46;91.16;99277.44;6184760;23;46574;-67
2023/10/26 09:33:50;;;;;;;;;9.00;5.75;;;;;15.47;91.60;99279.16;6185003;23;45467;-67
2023/10/26 09:36:17;;;;;;;;;6.00;4.00;;;;;15.42;91.46;99262.50;6181142;23;45302;-67
2023/10/26 09:38:43;;;;;;;;;5.25;3.50;;;;;15.48;91.38;99272.81;6182159;23;45632;-66
2023/10/26 09:41:13;;;;;;;;;5.00;2.75;;;;;15.49;91.67;99278.06;6183884;23;46257;-66
2023/10/26 09:43:42;;;;;;;;;3.25;2.00;;;;;15.49;91.30;99283.44;6183035;23;45568;-66
2023/10/26 09:46:11;;;;;;;;;5.75;3.75;;;;;15.42;90.97;99276.81;6183324;23;45681;-67
2023/10/26 09:48:38;;;;;;;;;7.75;2.75;;;;;15.45;91.23;99281.09;6181359;23;45536;-66
2023/10/26 09:51:04;;;;;;;;;5.25;2.25;;;;;15.45;90.96;99290.06;6182867;23;45611;-67
2023/10/26 09:53:37;;;;;;;;;3.00;1.25;;;;;15.51;91.27;99292.25;6183509;23;45268;-67
2023/10/26 09:56:04;;;;;;;;;5.50;2.00;;;;;15.52;90.81;99299.34;6183327;23;45714;-67
2023/10/26 09:58:41;;;;;;;;;3.00;2.00;;;;;15.53;90.80;99287.59;6182248;23;45430;-67
2023/10/26 10:01:36;;;;;;;;;3.00;2.75;;;;;15.55;91.16;99266.84;6181819;22;47463;-66
2023/10/26 10:04:02;;;;;;;;;4.00;2.75;;;;;15.57;91.39;99256.81;6182408;23;45261;-67
2023/10/26 10:06:48;;;;;;;;;2.25;1.75;;;;;15.60;91.07;99254.88;6181909;23;45338;-66
2023/10/26 10:09:13;;;;;;;;;3.00;3.00;;;;;15.60;90.51;99246.81;6183796;23;45327;-67
2023/10/26 10:11:40;;;;;;;;;2.00;2.00;;;;;15.66;90.24;99252.56;6184366;23;45761;-67
2023/10/26 10:14:05;;;;;;;;;6.25;2.50;;;;;15.66;89.89;99246.34;6183074;23;45538;-67
2023/10/26 10:16:33;;;;;;;;;2.00;2.00;;;;;15.67;89.88;99258.78;6183818;23;45395;-66
2023/10/26 10:19:18;;;;;;;;;3.00;2.50;;;;;15.71;89.62;99249.53;6183220;23;45494;-67
2023/10/26 10:21:44;;;;;;;;;5.00;3.75;;;;;15.72;90.21;99251.25;6183865;23;46114;-66
2023/10/26 10:24:09;;;;;;;;;5.75;2.25;;;;;15.74;89.50;99257.38;6182036;23;45182;-67
2023/10/26 10:27:13;;;;;;;;;7.00;4.00;;;;;15.64;89.56;99249.16;6184344;23;45521;-67
2023/10/26 10:29:41;;;;;;;;;4.75;3.00;;;;;15.74;89.48;99277.03;6183425;23;45362;-67
2023/10/26 10:32:07;;;;;;;;;4.50;2.00;;;;;15.74;90.13;99265.44;6183171;23;45253;-67
2023/10/26 10:34:42;;;;;;;;;1.75;1.75;;;;;15.74;89.48;99260.06;6181612;23;45462;-67
2023/10/26 10:37:12;;;;;;;;;2.75;2.25;;;;;15.77;89.85;99269.72;6182965;23;45372;-67
2023/10/26 10:39:38;;;;;;;;;5.00;2.00;;;;;15.82;90.15;99270.22;6181945;23;45313;-67
2023/10/26 10:42:08;;;;;;;;;2.75;1.50;;;;;15.77;90.06;99273.31;6183498;23;46127;-67
2023/10/26 10:44:37;;;;;;;;;3.00;3.00;;;;;15.83;89.80;99285.41;6182481;23;45506;-67
2023/10/26 10:47:02;;;;;;;;;2.00;2.00;;;;;15.79;89.16;99279.41;6156933;23;45386;-67
2023/10/26 10:49:29;;;;;;;;;5.00;1.00;;;;;15.78;89.07;99276.84;6182600;23;45315;-67
2023/10/26 10:51:54;;;;;;;;;2.50;2.00;;;;;15.80;89.28;99278.41;6183126;23;45247;-67
2023/10/26 10:54:22;;;;;;;;;2.00;2.00;;;;;15.83;89.00;99280.88;6155966;23;45356;-67
2023/10/26 10:56:49;;;;;;;;;5.00;4.75;;;;;15.87;88.98;99285.06;6182545;23;45759;-67
2023/10/26 10:59:25;;;;;;;;;4.00;2.25;;;;;15.83;89.07;99274.66;6182858;23;45545;-67
2023/10/26 11:02:05;;;;;;;;;6.00;3.75;;;;;15.86;88.49;99280.66;6181291;23;48564;-67
2023/10/26 11:04:31;;;;;;;;;2.00;2.00;;;;;15.85;87.71;99270.84;6183286;23;45258;-67
2023/10/26 11:06:56;;;;;;;;;2.00;2.00;;;;;15.80;87.97;99262.28;6183530;23;45364;-67
2023/10/26 11:09:25;;;;;;;;;3.50;2.75;;;;;15.89;88.03;99260.72;6153931;23;73221;-67
2023/10/26 11:11:51;;;;;;;;;4.25;3.00;;;;;15.93;88.39;99278.34;6182057;23;46118;-67
2023/10/26 11:14:18;;;;;;;;;3.50;1.25;;;;;15.92;88.30;99265.84;6183502;23;45422;-67
2023/10/26 11:16:44;;;;;;;;;2.75;1.25;;;;;15.93;88.49;99275.66;6183583;23;45756;-67
2023/10/26 11:19:09;;;;;;;;;5.00;4.00;;;;;15.92;88.14;99260.47;6182021;23;45570;-67
2023/10/26 11:21:35;;;;;;;;;1.50;1.50;;;;;15.96;87.16;99261.94;6183502;23;46118;-67
2023/10/26 11:24:01;;;;;;;;;4.75;1.50;;;;;15.97;87.86;99260.09;6182715;23;45482;-66
2023/10/26 11:26:26;;;;;;;;;3.00;3.00;;;;;15.94;88.07;99247.78;6183728;23;45265;-66
2023/10/26 11:28:52;;;;;;;;;2.00;2.00;;;;;15.97;88.16;99250.22;6184441;23;45500;-66
2023/10/26 11:31:39;;;;;;;;;4.50;2.00;;;;;16.00;88.20;99262.56;6182839;23;59813;-66